createdAt,value
2018-09-27T00:01:55.321Z,9.83
2018-09-27T00:04:23.467Z,8.60
2018-09-27T00:06:51.715Z,7.67
2018-09-27T00:09:19.984Z,6.70
2018-09-27T00:11:48.140Z,7.70
2018-09-27T00:14:16.367Z,9.13
2018-09-27T00:16:44.606Z,6.33
2018-09-27T00:19:12.797Z,5.70
2018-09-27T00:21:41.161Z,9.50
2018-09-27T00:24:09.416Z,7.47
2018-09-27T00:26:37.641Z,6.90
2018-09-27T00:29:05.855Z,5.23
2018-09-27T00:31:34.085Z,9.33
2018-09-27T00:34:02.234Z,5.77
2018-09-27T00:36:30.432Z,8.80
2018-09-27T00:38:58.625Z,4.07
2018-09-27T00:41:27.908Z,4.97
2018-09-27T00:43:56.236Z,6.27
2018-09-27T00:46:27.430Z,4.87
2018-09-27T00:48:55.626Z,6.67
2018-09-27T00:51:23.869Z,4.00
2018-09-27T00:53:52.082Z,4.40
2018-09-27T00:56:20.419Z,4.97
2018-09-27T00:58:49.252Z,4.37
2018-09-27T01:01:17.470Z,3.63
2018-09-27T01:03:45.704Z,4.80
2018-09-27T01:06:14.021Z,6.67
2018-09-27T01:08:42.208Z,4.17
2018-09-27T01:11:10.412Z,3.67
2018-09-27T01:13:38.836Z,3.40
2018-09-27T01:16:07.145Z,5.00
2018-09-27T01:18:35.709Z,4.23
2018-09-27T01:21:04.093Z,4.03
2018-09-27T01:23:32.338Z,3.30
2018-09-27T01:26:00.954Z,4.07
2018-09-27T01:28:31.418Z,4.87
2018-09-27T01:30:59.638Z,6.23
2018-09-27T01:33:27.785Z,4.30
2018-09-27T01:35:56.031Z,3.60
2018-09-27T01:38:24.289Z,4.57
2018-09-27T01:40:52.531Z,4.87
2018-09-27T01:43:20.757Z,5.27
2018-09-27T01:45:49.003Z,4.10
2018-09-27T01:48:17.283Z,4.80
2018-09-27T01:50:45.504Z,3.60
2018-09-27T01:53:14.129Z,5.67
2018-09-27T01:55:42.452Z,3.93
2018-09-27T01:58:10.683Z,3.70
2018-09-27T02:00:38.869Z,2.50
2018-09-27T02:03:07.120Z,4.17
2018-09-27T02:05:35.392Z,7.50
2018-09-27T02:08:06.627Z,5.07
2018-09-27T02:10:34.849Z,4.40
2018-09-27T02:13:03.065Z,3.07
2018-09-27T02:15:31.252Z,4.70
2018-09-27T02:17:59.462Z,4.93
2018-09-27T02:20:27.635Z,4.00
2018-09-27T02:22:55.877Z,4.83
2018-09-27T02:25:24.110Z,3.97
2018-09-27T02:27:52.388Z,4.93
2018-09-27T02:30:20.620Z,6.67
2018-09-27T02:32:48.860Z,2.40
2018-09-27T02:35:17.109Z,3.50
2018-09-27T02:37:45.330Z,4.13
2018-09-27T02:40:13.583Z,4.97
2018-09-27T02:42:41.820Z,3.13
2018-09-27T02:45:10.056Z,3.60
2018-09-27T02:47:38.367Z,2.83
2018-09-27T02:50:06.732Z,3.67
2018-09-27T02:52:34.959Z,3.00
2018-09-27T02:55:03.303Z,2.87
2018-09-27T02:57:31.470Z,2.47
2018-09-27T02:59:59.660Z,7.10
2018-09-27T03:02:27.895Z,3.23
2018-09-27T03:04:56.084Z,4.77
2018-09-27T03:07:24.301Z,4.80
2018-09-27T03:09:52.521Z,5.00
2018-09-27T03:12:20.788Z,4.43
2018-09-27T03:14:48.973Z,4.53
2018-09-27T03:17:17.220Z,4.10
2018-09-27T03:19:45.485Z,3.83
2018-09-27T03:22:13.713Z,3.20
2018-09-27T03:24:41.979Z,5.70
2018-09-27T03:27:10.203Z,4.13
2018-09-27T03:29:38.360Z,5.10
2018-09-27T03:32:06.957Z,5.13
2018-09-27T03:34:35.158Z,5.00
2018-09-27T03:37:03.387Z,5.87
2018-09-27T03:39:31.612Z,3.97
2018-09-27T03:41:59.828Z,4.07
2018-09-27T03:44:28.020Z,5.53
2018-09-27T03:46:56.364Z,5.03
2018-09-27T03:49:24.551Z,5.40
2018-09-27T03:51:52.724Z,7.87
2018-09-27T03:54:20.951Z,2.67
2018-09-27T03:56:49.107Z,5.03
2018-09-27T03:59:17.321Z,5.83
2018-09-27T04:01:45.758Z,4.33
2018-09-27T04:04:14.412Z,4.27
2018-09-27T04:06:42.909Z,5.77
2018-09-27T04:09:11.682Z,3.50
2018-09-27T04:11:40.312Z,4.97
2018-09-27T04:14:09.151Z,2.40
2018-09-27T04:16:37.484Z,3.17
2018-09-27T04:19:05.721Z,3.97
2018-09-27T04:21:33.926Z,3.87
2018-09-27T04:24:02.187Z,4.70
2018-09-27T04:26:30.345Z,3.70
2018-09-27T04:28:58.519Z,6.43
2018-09-27T04:31:26.842Z,3.93
2018-09-27T04:33:55.139Z,4.23
2018-09-27T04:36:23.374Z,9.07
2018-09-27T04:38:51.586Z,2.57
2018-09-27T04:41:20.173Z,3.50
2018-09-27T04:43:48.413Z,2.97
2018-09-27T04:46:16.628Z,4.23
2018-09-27T04:48:44.900Z,4.03
2018-09-27T04:51:13.196Z,4.57
2018-09-27T04:53:41.541Z,5.30
2018-09-27T04:56:09.818Z,5.17
2018-09-27T04:58:38.275Z,4.33
2018-09-27T05:01:06.866Z,3.03
2018-09-27T05:03:35.094Z,3.27
2018-09-27T05:06:03.337Z,6.10
2018-09-27T05:08:31.576Z,5.77
2018-09-27T05:10:59.769Z,4.17
2018-09-27T05:13:27.971Z,5.03
2018-09-27T05:15:56.315Z,3.87
2018-09-27T05:18:24.501Z,2.70
2018-09-27T05:20:52.794Z,3.30
2018-09-27T05:23:21.095Z,4.43
2018-09-27T05:25:49.384Z,4.43
2018-09-27T05:28:17.634Z,2.73
2018-09-27T05:30:45.862Z,3.73
2018-09-27T05:33:14.110Z,4.27
2018-09-27T05:35:42.434Z,3.60
2018-09-27T05:38:10.822Z,5.73
2018-09-27T05:40:39.080Z,3.27
2018-09-27T05:43:07.454Z,6.17
2018-09-27T05:45:37.548Z,4.53
2018-09-27T05:48:05.834Z,3.93
2018-09-27T05:50:34.154Z,6.77
2018-09-27T05:53:02.428Z,3.50
2018-09-27T05:55:30.714Z,3.40
2018-09-27T05:57:59.194Z,6.27
2018-09-27T06:00:27.708Z,5.00
2018-09-27T06:02:56.137Z,5.90
2018-09-27T06:05:24.515Z,6.27
2018-09-27T06:07:52.714Z,6.20
2018-09-27T06:10:21.004Z,6.80
2018-09-27T06:12:49.354Z,6.63
2018-09-27T06:15:17.599Z,6.87
2018-09-27T06:17:45.834Z,7.93
2018-09-27T06:20:14.250Z,4.87
2018-09-27T06:22:42.576Z,5.10
2018-09-27T06:25:10.908Z,6.90
2018-09-27T06:27:39.309Z,7.23
2018-09-27T06:30:07.569Z,7.13
2018-09-27T06:32:35.853Z,5.07
2018-09-27T06:35:04.290Z,5.17
2018-09-27T06:37:32.486Z,8.80
2018-09-27T06:40:00.856Z,4.37
2018-09-27T06:42:29.159Z,5.03
2018-09-27T06:44:57.548Z,4.73
2018-09-27T06:47:25.859Z,5.47
2018-09-27T06:49:54.098Z,4.87
2018-09-27T06:52:22.416Z,5.33
2018-09-27T06:54:50.754Z,5.93
2018-09-27T06:57:19.114Z,4.33
2018-09-27T06:59:47.439Z,6.47
2018-09-27T07:02:15.738Z,10.03
2018-09-27T07:04:44.111Z,5.13
2018-09-27T07:07:12.382Z,7.63
2018-09-27T07:09:40.635Z,6.07
2018-09-27T07:12:09.837Z,4.83
2018-09-27T07:14:38.208Z,4.93
2018-09-27T07:17:06.555Z,4.73
2018-09-27T07:19:35.001Z,5.80
2018-09-27T07:22:03.173Z,5.40
2018-09-27T07:24:31.369Z,7.07
2018-09-27T07:26:59.698Z,5.40
2018-09-27T07:29:28.208Z,6.80
2018-09-27T07:31:56.454Z,7.07
2018-09-27T07:34:24.706Z,4.00
2018-09-27T07:36:53.162Z,10.53
2018-09-27T07:39:21.458Z,3.40
2018-09-27T07:41:49.899Z,5.53
2018-09-27T07:44:18.337Z,8.07
2018-09-27T07:46:46.634Z,6.43
2018-09-27T07:49:14.794Z,12.97
2018-09-27T07:51:43.150Z,7.67
2018-09-27T07:54:14.623Z,6.73
2018-09-27T07:56:43.229Z,8.50
2018-09-27T07:59:11.598Z,7.00
2018-09-27T08:01:39.873Z,9.67
2018-09-27T08:04:08.201Z,10.60
2018-09-27T08:06:36.591Z,7.47
2018-09-27T08:09:06.473Z,8.03
2018-09-27T08:11:34.875Z,5.77
2018-09-27T08:14:03.182Z,6.93
2018-09-27T08:16:31.722Z,7.00
2018-09-27T08:21:44.993Z,6.73
2018-09-27T08:24:13.269Z,12.40
2018-09-27T08:26:41.570Z,8.33
2018-09-27T08:29:09.798Z,9.00
2018-09-27T08:31:38.077Z,9.13
2018-09-27T08:34:06.311Z,8.37
2018-09-27T08:36:34.535Z,6.63
2018-09-27T08:39:02.893Z,10.90
2018-09-27T08:41:31.123Z,7.27
2018-09-27T08:43:59.440Z,9.67
2018-09-27T08:46:27.785Z,7.53
2018-09-27T08:48:56.081Z,11.07
2018-09-27T08:51:24.347Z,9.03
2018-09-27T08:53:52.680Z,13.13
2018-09-27T08:56:20.935Z,6.60
2018-09-27T08:58:49.182Z,10.23
2018-09-27T09:01:17.567Z,8.47
2018-09-27T09:03:46.092Z,7.20
2018-09-27T09:06:14.123Z,7.73
2018-09-27T09:08:42.388Z,9.13
2018-09-27T09:11:10.701Z,9.93
2018-09-27T09:13:39.034Z,7.40
2018-09-27T09:16:07.387Z,7.93
2018-09-27T09:18:35.855Z,8.70
2018-09-27T09:21:05.017Z,7.10
2018-09-27T09:23:33.450Z,7.03
2018-09-27T09:26:01.904Z,10.23
2018-09-27T09:28:30.089Z,12.73
2018-09-27T09:30:58.398Z,6.87
2018-09-27T09:33:33.284Z,4.70
2018-09-27T09:36:01.562Z,8.97
2018-09-27T09:38:29.648Z,8.97
2018-09-27T09:40:57.976Z,8.50
2018-09-27T09:43:26.215Z,6.43
2018-09-27T09:45:54.760Z,7.03
2018-09-27T09:48:23.195Z,5.43
2018-09-27T09:50:51.459Z,9.03
2018-09-27T09:53:19.717Z,10.40
2018-09-27T09:55:48.183Z,5.07
2018-09-27T09:58:16.605Z,12.33
2018-09-27T10:00:44.773Z,8.27
2018-09-27T10:03:13.064Z,9.10
2018-09-27T10:05:41.403Z,6.77
2018-09-27T10:08:09.603Z,7.70
2018-09-27T10:10:37.829Z,8.43
2018-09-27T10:13:06.106Z,8.87
2018-09-27T10:15:34.346Z,6.30
2018-09-27T10:18:02.558Z,8.60
2018-09-27T10:20:30.825Z,8.47
2018-09-27T10:22:59.129Z,8.77
2018-09-27T10:25:27.378Z,8.33
2018-09-27T10:27:56.743Z,6.40
2018-09-27T10:30:24.957Z,4.30
2018-09-27T10:32:53.201Z,7.20
2018-09-27T10:35:21.499Z,5.60
2018-09-27T10:37:49.784Z,7.77
2018-09-27T10:40:18.094Z,7.83
2018-09-27T10:42:46.555Z,5.03
2018-09-27T10:45:14.896Z,8.60
2018-09-27T10:47:43.162Z,6.37
2018-09-27T10:50:11.370Z,5.00
2018-09-27T10:52:39.549Z,4.77
2018-09-27T10:55:07.771Z,6.47
2018-09-27T10:57:36.031Z,7.97
2018-09-27T11:00:04.561Z,11.80
2018-09-27T11:02:32.756Z,7.30
2018-09-27T11:05:01.236Z,5.03
2018-09-27T11:07:36.225Z,10.73
2018-09-27T11:10:04.507Z,6.87
2018-09-27T11:12:32.727Z,7.67
2018-09-27T11:15:00.933Z,5.07
2018-09-27T11:17:29.294Z,5.43
2018-09-27T11:19:57.565Z,4.87
2018-09-27T11:22:25.744Z,5.87
2018-09-27T11:24:54.084Z,5.57
2018-09-27T11:27:22.238Z,6.40
2018-09-27T11:29:54.732Z,6.87
2018-09-27T11:32:27.283Z,4.67
2018-09-27T11:34:55.668Z,4.27
2018-09-27T11:37:24.066Z,6.30
2018-09-27T11:39:52.528Z,8.27
2018-09-27T11:42:29.995Z,3.77
2018-09-27T11:45:11.580Z,6.63
2018-09-27T11:47:40.667Z,3.27
2018-09-27T11:50:09.224Z,4.47
2018-09-27T11:52:38.836Z,5.70
2018-09-27T11:55:15.052Z,5.40
2018-09-27T11:57:48.443Z,3.90
2018-09-27T12:00:17.208Z,7.00
2018-09-27T12:02:45.465Z,6.40
2018-09-27T12:05:13.759Z,7.67
2018-09-27T12:07:41.987Z,6.20
2018-09-27T12:10:10.141Z,3.73
2018-09-27T12:12:38.371Z,3.83
2018-09-27T12:15:06.752Z,4.07
2018-09-27T12:17:35.107Z,4.70
2018-09-27T12:20:03.201Z,3.47
2018-09-27T12:22:31.447Z,3.47
2018-09-27T12:24:59.680Z,5.13
2018-09-27T12:27:27.901Z,4.67
2018-09-27T12:29:56.099Z,2.37
2018-09-27T12:32:24.413Z,5.70
2018-09-27T12:34:52.592Z,4.83
2018-09-27T12:37:21.035Z,5.07
2018-09-27T12:39:49.378Z,4.40
2018-09-27T12:42:17.655Z,7.97
2018-09-27T12:44:45.951Z,3.93
2018-09-27T12:47:14.223Z,3.73
2018-09-27T12:49:42.399Z,4.40
2018-09-27T12:52:10.972Z,4.60
2018-09-27T12:54:39.032Z,2.50
2018-09-27T12:57:07.393Z,2.63
2018-09-27T12:59:35.725Z,5.17
2018-09-27T13:02:04.148Z,6.67
2018-09-27T13:04:32.212Z,6.53
2018-09-27T13:07:00.525Z,3.63
2018-09-27T13:09:28.919Z,3.67
2018-09-27T13:11:57.301Z,3.70
2018-09-27T13:14:30.587Z,4.83
2018-09-27T13:16:59.141Z,6.23
2018-09-27T13:19:27.336Z,5.03
2018-09-27T13:21:58.745Z,5.10
2018-09-27T13:24:26.998Z,4.03
2018-09-27T13:26:55.466Z,3.57
2018-09-27T13:29:23.743Z,4.30
2018-09-27T13:31:51.990Z,5.17
2018-09-27T13:34:20.232Z,3.27
2018-09-27T13:36:48.475Z,6.33
2018-09-27T13:39:16.852Z,7.47
2018-09-27T13:41:45.128Z,3.90
2018-09-27T13:44:13.284Z,4.70
2018-09-27T13:46:41.468Z,4.93
2018-09-27T13:49:09.871Z,3.73
2018-09-27T13:51:37.960Z,5.13
2018-09-27T13:54:06.297Z,5.27
2018-09-27T13:56:34.589Z,5.93
2018-09-27T13:59:02.829Z,7.90
2018-09-27T14:01:31.307Z,6.43
2018-09-27T14:03:59.633Z,5.10
2018-09-27T14:06:28.069Z,2.90
2018-09-27T14:08:59.430Z,4.03
2018-09-27T14:11:27.734Z,1.57
2018-09-27T14:13:56.745Z,8.73
2018-09-27T14:16:25.115Z,3.73
2018-09-27T14:18:53.392Z,5.03
2018-09-27T14:21:21.809Z,2.57
2018-09-27T14:23:53.170Z,3.30
2018-09-27T14:26:25.883Z,3.57
2018-09-27T14:28:54.222Z,4.50
2018-09-27T14:31:22.862Z,4.00
2018-09-27T14:33:51.169Z,3.07
2018-09-27T14:36:19.525Z,2.13
2018-09-27T14:38:47.905Z,3.77
2018-09-27T14:41:16.169Z,2.17
2018-09-27T14:43:44.469Z,2.53
2018-09-27T14:46:13.961Z,2.27
2018-09-27T14:48:43.535Z,3.43
2018-09-27T14:51:11.783Z,3.90
2018-09-27T14:53:40.294Z,3.40
2018-09-27T14:56:08.819Z,2.37
2018-09-27T14:58:38.047Z,3.87
2018-09-27T15:01:11.331Z,2.50
2018-09-27T15:03:47.010Z,2.80
2018-09-27T15:06:15.398Z,4.23
2018-09-27T15:08:43.754Z,2.47
2018-09-27T15:11:12.053Z,3.47
2018-09-27T15:13:40.552Z,4.67
2018-09-27T15:16:08.886Z,2.83
2018-09-27T15:18:40.208Z,2.67
2018-09-27T15:21:08.734Z,3.70
2018-09-27T15:23:37.076Z,3.87
2018-09-27T15:26:05.426Z,4.00
2018-09-27T15:28:33.828Z,4.40
2018-09-27T15:31:02.171Z,3.57
2018-09-27T15:33:30.609Z,2.97
2018-09-27T15:35:59.054Z,2.20
2018-09-27T15:38:27.308Z,3.17
2018-09-27T15:40:56.084Z,4.67
2018-09-27T15:43:24.557Z,6.83
2018-09-27T15:45:52.816Z,7.37
2018-09-27T15:48:21.470Z,6.97
2018-09-27T15:50:50.661Z,4.87
2018-09-27T15:53:19.008Z,4.57
2018-09-27T15:55:47.296Z,4.83
2018-09-27T15:58:15.570Z,4.17
2018-09-27T16:00:44.197Z,3.97
2018-09-27T16:03:13.262Z,3.77
2018-09-27T16:05:44.786Z,4.43
2018-09-27T16:08:13.237Z,5.40
2018-09-27T16:10:44.731Z,5.30
2018-09-27T16:13:13.196Z,3.03
2018-09-27T16:15:44.815Z,5.37
2018-09-27T16:20:45.855Z,4.57
2018-09-27T16:23:19.231Z,5.30
2018-09-27T16:25:47.945Z,6.50
2018-09-27T16:28:16.379Z,6.47
2018-09-27T16:30:44.934Z,6.37
2018-09-27T16:33:13.203Z,7.77
2018-09-27T16:35:41.422Z,7.43
2018-09-27T16:38:09.957Z,4.97
2018-09-27T16:40:38.273Z,7.47
2018-09-27T16:43:06.565Z,7.87
2018-09-27T16:45:34.916Z,6.20
2018-09-27T16:48:06.446Z,9.17
2018-09-27T16:50:37.822Z,10.10
2018-09-27T16:53:06.357Z,20.10
2018-09-27T16:55:34.658Z,18.67
2018-09-27T16:58:03.391Z,20.60
2018-09-27T17:00:31.935Z,18.30
2018-09-27T17:03:01.228Z,14.63
2018-09-27T17:05:29.907Z,15.30
2018-09-27T17:07:58.225Z,10.23
2018-09-27T17:10:26.527Z,6.90
2018-09-27T17:12:55.112Z,8.43
2018-09-27T17:15:29.694Z,7.40
2018-09-27T17:17:58.214Z,6.77
2018-09-27T17:20:26.462Z,7.33
2018-09-27T17:22:54.835Z,7.73
2018-09-27T17:25:23.083Z,7.60
2018-09-27T17:27:51.305Z,6.17
2018-09-27T17:30:19.583Z,8.63
2018-09-27T17:32:47.779Z,6.13
2018-09-27T17:35:16.024Z,4.03
2018-09-27T17:37:45.387Z,9.03
2018-09-27T17:40:13.975Z,8.77
2018-09-27T17:42:42.377Z,13.50
2018-09-27T17:45:11.030Z,14.03
2018-09-27T17:47:39.446Z,13.83
2018-09-27T17:50:07.975Z,15.27
2018-09-27T17:52:36.344Z,13.87
2018-09-27T17:55:05.088Z,14.77
2018-09-27T17:57:33.494Z,17.87
2018-09-27T18:00:01.797Z,19.30
2018-09-27T18:02:30.349Z,21.80
2018-09-27T18:04:58.824Z,24.07
2018-09-27T18:07:27.197Z,25.77
2018-09-27T18:09:55.574Z,22.60
2018-09-27T18:12:24.034Z,21.73
2018-09-27T18:14:52.454Z,15.67
2018-09-27T18:17:20.785Z,12.30
2018-09-27T18:19:49.451Z,9.53
2018-09-27T18:22:21.785Z,8.10
2018-09-27T18:24:50.600Z,8.20
2018-09-27T18:27:19.150Z,11.10
2018-09-27T18:29:47.416Z,7.17
2018-09-27T18:32:15.726Z,11.10
2018-09-27T18:34:48.265Z,13.20
2018-09-27T18:37:16.544Z,13.30
2018-09-27T18:39:47.701Z,11.77
2018-09-27T18:42:16.236Z,13.97
2018-09-27T18:44:44.585Z,20.40
2018-09-27T18:47:13.028Z,12.40
2018-09-27T18:49:42.670Z,14.50
2018-09-27T18:52:11.006Z,17.67
2018-09-27T18:54:41.658Z,16.13
2018-09-27T18:57:10.134Z,15.57
2018-09-27T18:59:38.395Z,15.93
2018-09-27T19:02:07.060Z,18.80
2018-09-27T19:04:35.562Z,18.83
2018-09-27T19:07:07.425Z,19.37
2018-09-27T19:09:36.953Z,15.97
2018-09-27T19:12:06.269Z,16.03
2018-09-27T19:14:34.503Z,16.63
2018-09-27T19:17:02.995Z,16.20
2018-09-27T19:19:31.393Z,17.97
2018-09-27T19:22:03.573Z,13.57
2018-09-27T19:24:31.842Z,14.40
2018-09-27T19:27:00.061Z,11.73
2018-09-27T19:29:29.553Z,12.87
2018-09-27T19:31:58.571Z,14.07
2018-09-27T19:34:27.573Z,9.73
2018-09-27T19:36:59.763Z,12.53
2018-09-27T19:39:28.174Z,9.53
2018-09-27T19:41:56.583Z,10.30
2018-09-27T19:44:24.926Z,12.20
2018-09-27T19:46:53.448Z,10.97
2018-09-27T19:49:22.707Z,10.63
2018-09-27T19:51:50.990Z,10.67
2018-09-27T19:54:19.333Z,11.13
2018-09-27T19:56:47.722Z,11.93
2018-09-27T19:59:16.236Z,11.90
2018-09-27T20:01:44.584Z,11.77
2018-09-27T20:04:13.211Z,10.90
2018-09-27T20:06:41.557Z,8.97
2018-09-27T20:09:12.188Z,11.00
2018-09-27T20:11:40.596Z,12.37
2018-09-27T20:14:09.075Z,11.83
2018-09-27T20:16:37.605Z,10.30
2018-09-27T20:19:06.341Z,10.90
2018-09-27T20:21:34.926Z,10.73
2018-09-27T20:24:03.388Z,12.33
2018-09-27T20:26:31.892Z,10.00
2018-09-27T20:29:00.307Z,12.10
2018-09-27T20:31:28.620Z,11.40
2018-09-27T20:33:56.905Z,10.43
2018-09-27T20:36:25.693Z,12.93
2018-09-27T20:38:53.970Z,13.57
2018-09-27T20:41:22.165Z,8.70
2018-09-27T20:43:50.428Z,11.90
2018-09-27T20:46:18.906Z,12.90
2018-09-27T20:48:47.309Z,11.93
2018-09-27T20:51:15.550Z,14.07
2018-09-27T20:53:43.784Z,10.63
2018-09-27T20:56:12.001Z,14.23
2018-09-27T20:58:40.300Z,14.73
2018-09-27T21:01:08.527Z,14.73
2018-09-27T21:03:36.753Z,12.93
2018-09-27T21:06:05.043Z,14.83
2018-09-27T21:08:33.326Z,14.00
2018-09-27T21:11:01.595Z,14.53
2018-09-27T21:13:29.894Z,11.30
2018-09-27T21:15:58.130Z,11.47
2018-09-27T21:18:26.334Z,13.47
2018-09-27T21:20:54.734Z,15.30
2018-09-27T21:23:22.967Z,14.87
2018-09-27T21:25:51.448Z,14.00
2018-09-27T21:28:19.767Z,11.40
2018-09-27T21:30:48.045Z,14.50
2018-09-27T21:33:16.243Z,16.87
2018-09-27T21:35:44.624Z,13.03
2018-09-27T21:38:12.835Z,13.57
2018-09-27T21:40:41.195Z,13.77
2018-09-27T21:43:09.604Z,11.87
2018-09-27T21:45:38.629Z,12.13
2018-09-27T21:48:06.853Z,13.20
2018-09-27T21:50:35.137Z,13.80
2018-09-27T21:53:04.183Z,11.07
2018-09-27T21:55:35.558Z,14.83
2018-09-27T21:58:03.812Z,13.60
2018-09-27T22:00:31.997Z,14.77
2018-09-27T22:03:00.234Z,13.33
2018-09-27T22:05:29.443Z,11.43
2018-09-27T22:07:57.705Z,13.10
2018-09-27T22:10:26.083Z,14.10
2018-09-27T22:12:54.346Z,12.80
2018-09-27T22:15:22.640Z,10.93
2018-09-27T22:17:51.019Z,14.47
2018-09-27T22:20:19.257Z,9.93
2018-09-27T22:22:47.438Z,10.50
2018-09-27T22:25:15.669Z,11.63
2018-09-27T22:27:43.936Z,9.80
2018-09-27T22:30:12.258Z,12.30
2018-09-27T22:32:40.649Z,12.00
2018-09-27T22:35:08.854Z,10.57
2018-09-27T22:37:37.054Z,8.83
2018-09-27T22:40:05.276Z,10.67
2018-09-27T22:42:33.552Z,9.27
2018-09-27T22:45:01.730Z,11.03
2018-09-27T22:47:29.983Z,9.30
2018-09-27T22:49:58.240Z,8.80
2018-09-27T22:52:26.460Z,9.13
2018-09-27T22:54:54.764Z,7.63
2018-09-27T22:57:22.944Z,8.27
2018-09-27T22:59:51.139Z,8.87
2018-09-27T23:02:19.668Z,10.10
2018-09-27T23:04:47.940Z,10.73
2018-09-27T23:07:16.142Z,8.83
2018-09-27T23:09:44.437Z,10.00
2018-09-27T23:12:12.595Z,8.93
2018-09-27T23:14:40.803Z,6.30
2018-09-27T23:17:09.040Z,9.10
2018-09-27T23:19:37.222Z,9.03
2018-09-27T23:22:05.449Z,10.43
2018-09-27T23:24:33.705Z,7.63
2018-09-27T23:27:01.931Z,8.23
2018-09-27T23:29:30.158Z,7.03
2018-09-27T23:31:58.472Z,6.83
2018-09-27T23:34:26.654Z,7.73
2018-09-27T23:36:54.837Z,6.70
2018-09-27T23:39:23.040Z,8.87
2018-09-27T23:41:51.206Z,9.10
2018-09-27T23:44:19.347Z,7.53
2018-09-27T23:46:47.634Z,9.53
2018-09-27T23:49:15.873Z,8.67
2018-09-27T23:51:44.055Z,8.07
2018-09-27T23:54:12.323Z,9.13
2018-09-27T23:56:40.483Z,10.60
2018-09-27T23:59:08.665Z,8.30
